Time;durP1;ratioP1;P1;durP2;ratioP2;P2;SDS_P1;SDS_P2;PMS_P1;PMS_P2;Temp;Humidity;BMP_temperature;BMP_pressure;BME280_temperature;BME280_humidity;BME280_pressure;Samples;Min_cycle;Max_cycle;Signal;HPM_P1;HPM_P2
2022/08/23 00:06:18;;;;;;;0.60;0.40;;;27.20;39.30;;;;;;21007295;28;20055;-57
2022/08/23 00:16:20;;;;;;;1.65;0.63;;;27.20;39.30;;;;;;21007086;28;20067;-57
2022/08/23 00:26:22;;;;;;;1.35;0.60;;;27.00;39.90;;;;;;21005761;28;20052;-57
2022/08/23 00:36:24;;;;;;;0.68;0.40;;;26.90;40.30;;;;;;21004694;28;20097;-58
2022/08/23 00:57:09;;;;;;;1.17;0.50;;;26.60;40.70;;;;;;21004020;28;19924;-58
2022/08/23 01:07:26;;;;;;;0.50;0.40;;;26.50;40.90;;;;;;21002860;28;20088;-56
2022/08/23 01:17:55;;;;;;;1.10;0.50;;;26.40;41.20;;;;;;21003037;28;20052;-58
2022/08/23 01:27:58;;;;;;;2.20;0.55;;;26.30;41.20;;;;;;21000492;28;20082;-54
2022/08/23 01:37:59;;;;;;;0.50;0.38;;;26.20;41.50;;;;;;20999565;28;20041;-53
2022/08/23 01:48:02;;;;;;;0.57;0.47;;;26.10;41.60;;;;;;20998178;28;20048;-56
2022/08/23 01:58:06;;;;;;;0.50;0.47;;;26.10;41.90;;;;;;20999738;28;20407;-55
2022/08/23 02:18:33;;;;;;;1.58;0.50;;;25.90;42.30;;;;;;20997488;28;20075;-56
2022/08/23 02:28:43;;;;;;;1.83;0.60;;;25.80;42.50;;;;;;20996766;28;20048;-56
2022/08/23 02:38:51;;;;;;;1.85;0.50;;;25.70;42.60;;;;;;20996603;28;20053;-57
2022/08/23 02:48:57;;;;;;;1.17;0.65;;;25.70;42.70;;;;;;20995346;28;20518;-53
2022/08/23 02:59:01;;;;;;;0.60;0.40;;;25.70;42.80;;;;;;20994477;28;20076;-56
2022/08/23 03:09:06;;;;;;;0.77;0.50;;;25.60;42.90;;;;;;20994979;28;20055;-56
2022/08/23 03:19:08;;;;;;;1.02;0.60;;;25.60;43.00;;;;;;20995025;28;20523;-56
2022/08/23 03:29:12;;;;;;;2.30;0.70;;;25.50;43.10;;;;;;20993191;28;20044;-56
2022/08/23 03:39:14;;;;;;;1.40;0.50;;;25.60;42.90;;;;;;20993086;28;20056;-56
2022/08/23 03:49:16;;;;;;;1.65;0.85;;;25.40;43.00;;;;;;20992858;28;20159;-56
2022/08/23 03:59:18;;;;;;;0.60;0.40;;;25.30;42.90;;;;;;20992749;28;20044;-53
2022/08/23 04:09:22;;;;;;;0.70;0.50;;;25.30;42.70;;;;;;20993102;28;20381;-57
2022/08/23 04:19:24;;;;;;;0.90;0.50;;;25.20;42.40;;;;;;21004084;28;20055;-57
2022/08/23 04:29:26;;;;;;;5.47;0.73;;;25.10;42.40;;;;;;21005518;28;20056;-58
2022/08/23 04:42:16;;;;;;;2.40;0.55;;;25.10;42.20;;;;;;21004857;28;20389;-56
2022/08/23 04:49:50;;;;;;;0.87;0.50;;;25.10;42.30;;;;;;21003530;28;20053;-57
2022/08/23 04:59:52;;;;;;;2.20;0.50;;;25.00;42.20;;;;;;21002937;28;20493;-56
2022/08/23 05:09:53;;;;;;;1.33;0.50;;;24.90;41.80;;;;;;21002048;28;20099;-56
2022/08/23 05:19:55;;;;;;;1.00;0.60;;;24.90;41.80;;;;;;21000820;28;20049;-55
2022/08/23 05:29:57;;;;;;;4.47;0.70;;;24.90;41.60;;;;;;20999945;28;20409;-56
2022/08/23 05:39:59;;;;;;;1.55;0.60;;;24.80;41.60;;;;;;20999091;28;20072;-55
2022/08/23 05:50:01;;;;;;;;;;;24.70;41.70;;;;;;20999449;28;20049;-56
2022/08/23 06:00:13;;;;;;;2.30;0.70;;;24.70;41.80;;;;;;20998617;28;20333;-56
2022/08/23 06:10:15;;;;;;;3.95;0.90;;;24.60;42.00;;;;;;20998471;28;20412;-56
2022/08/23 06:20:17;;;;;;;2.45;0.70;;;24.70;42.10;;;;;;20996175;28;20074;-56
2022/08/23 06:30:18;;;;;;;4.80;0.93;;;24.70;42.10;;;;;;20995810;28;20135;-57
2022/08/23 06:40:19;;;;;;;1.83;0.83;;;24.80;42.10;;;;;;20994360;28;20516;-56
2022/08/23 06:50:22;;;;;;;2.93;0.70;;;24.70;42.50;;;;;;20999124;28;20519;-56
2022/08/23 07:00:23;;;;;;;4.85;1.38;;;24.70;42.70;;;;;;20994552;28;20053;-58
2022/08/23 07:10:24;;;;;;;4.10;0.87;;;24.90;42.60;;;;;;20993506;28;20512;-57
2022/08/23 07:20:28;;;;;;;4.13;1.27;;;25.20;42.50;;;;;;20993121;28;20084;-56
2022/08/23 07:30:29;;;;;;;2.78;0.90;;;25.70;41.80;;;;;;20992410;28;20076;-55
2022/08/23 07:40:30;;;;;;;4.87;0.93;;;26.10;41.40;;;;;;20991824;28;20165;-56
2022/08/23 07:50:32;;;;;;;6.40;1.17;;;26.40;41.00;;;;;;21001020;28;20143;-57
2022/08/23 08:00:35;;;;;;;5.03;1.00;;;26.90;40.50;;;;;;21006728;28;20839;-57
2022/08/23 08:10:39;;;;;;;3.88;1.05;;;27.10;40.50;;;;;;21005946;28;20053;-58
2022/08/23 08:20:43;;;;;;;2.58;0.80;;;27.50;40.80;;;;;;21005211;28;20079;-56
2022/08/23 08:30:44;;;;;;;5.25;1.27;;;27.60;40.60;;;;;;21004089;28;20057;-57
2022/08/23 08:40:46;;;;;;;;;;;27.70;40.30;;;;;;21004353;28;20056;-57
2022/08/23 08:50:54;;;;;;;2.90;1.00;;;28.00;40.00;;;;;;21003161;28;20015;-58
2022/08/23 09:00:57;;;;;;;5.72;1.40;;;28.10;40.10;;;;;;21001701;28;20143;-58
2022/08/23 09:11:16;;;;;;;7.97;1.67;;;28.20;40.30;;;;;;21003536;28;20139;-57
2022/08/23 09:21:17;;;;;;;2.30;1.30;;;28.50;40.70;;;;;;21000131;28;20385;-57
2022/08/23 09:31:46;;;;;;;3.67;1.35;;;28.70;40.50;;;;;;21000858;28;20055;-56
2022/08/23 09:41:49;;;;;;;3.58;1.40;;;28.90;40.80;;;;;;21001673;28;20045;-55
2022/08/23 09:51:51;;;;;;;4.10;1.73;;;29.00;40.40;;;;;;20999353;28;20132;-58
2022/08/23 10:01:57;;;;;;;7.43;2.67;;;29.10;40.00;;;;;;20997425;28;20044;-56
2022/08/23 10:12:00;;;;;;;4.22;1.60;;;29.30;39.30;;;;;;20995769;28;20480;-57
2022/08/23 10:22:22;;;;;;;5.18;1.80;;;29.50;39.70;;;;;;20996700;28;20495;-56
2022/08/23 10:33:06;;;;;;;4.28;1.77;;;29.80;39.30;;;;;;20996759;28;20048;-59
2022/08/23 10:43:29;;;;;;;4.25;1.92;;;29.80;39.40;;;;;;20851441;28;20053;-58
2022/08/23 10:53:46;;;;;;;4.03;1.92;;;30.00;39.60;;;;;;20804800;28;20165;-58
2022/08/23 11:04:26;;;;;;;5.75;1.77;;;30.00;39.40;;;;;;20805164;28;20517;-59
2022/08/23 11:14:30;;;;;;;5.88;1.98;;;30.20;39.30;;;;;;20880199;28;20056;-59
2022/08/23 11:24:48;;;;;;;3.85;1.75;;;30.30;39.20;;;;;;21001321;28;20136;-58
2022/08/23 11:35:07;;;;;;;4.38;2.20;;;30.60;38.40;;;;;;21011358;28;20079;-56
2022/08/23 11:45:26;;;;;;;6.88;2.20;;;30.90;37.90;;;;;;21009566;28;20057;-57
2022/08/23 11:56:04;;;;;;;5.97;1.77;;;31.10;37.40;;;;;;21007872;28;20064;-57
2022/08/23 12:06:17;;;;;;;9.98;2.40;;;31.40;36.20;;;;;;21007239;28;20044;-57
2022/08/23 12:16:20;;;;;;;4.13;2.13;;;31.80;35.40;;;;;;21007346;28;20040;-59
2022/08/23 12:26:43;;;;;;;5.45;2.00;;;32.10;35.20;;;;;;21004013;28;20481;-58
2022/08/23 12:36:53;;;;;;;9.52;1.95;;;32.30;34.20;;;;;;21003950;28;20064;-58
2022/08/23 12:46:56;;;;;;;5.25;2.03;;;32.70;33.60;;;;;;21003870;28;20056;-59
2022/08/23 12:56:59;;;;;;;2.92;1.40;;;33.10;31.50;;;;;;21002927;28;20044;-58
2022/08/23 13:07:04;;;;;;;5.00;1.65;;;33.40;31.10;;;;;;21001729;28;20170;-59
2022/08/23 13:17:21;;;;;;;5.53;1.92;;;33.30;31.10;;;;;;21002718;28;20110;-56
2022/08/23 13:27:27;;;;;;;2.80;1.60;;;33.50;31.10;;;;;;21000443;28;20048;-59
2022/08/23 13:37:31;;;;;;;4.55;1.60;;;33.60;31.20;;;;;;21000161;28;20400;-57
2022/08/23 13:47:35;;;;;;;3.63;1.75;;;34.00;28.40;;;;;;20998861;28;20462;-59
2022/08/23 13:57:39;;;;;;;2.45;1.60;;;33.90;28.70;;;;;;20999618;28;20080;-58
2022/08/23 14:07:40;;;;;;;3.40;1.50;;;34.20;28.20;;;;;;20997774;28;20082;-60
2022/08/23 14:17:45;;;;;;;3.20;1.63;;;34.30;28.30;;;;;;20997873;28;20079;-57
2022/08/23 14:27:49;;;;;;;3.38;1.55;;;34.20;28.20;;;;;;20996560;28;20056;-57
2022/08/23 14:37:50;;;;;;;2.97;1.50;;;34.60;26.70;;;;;;20997445;28;20053;-60
2022/08/23 14:47:52;;;;;;;3.20;2.00;;;34.70;25.20;;;;;;20995244;28;20415;-59
2022/08/23 14:57:53;;;;;;;4.47;1.40;;;34.70;26.90;;;;;;20995295;28;20136;-59
2022/08/23 15:07:55;;;;;;;4.53;1.85;;;34.80;26.30;;;;;;20996420;28;20052;-58
2022/08/23 15:17:59;;;;;;;4.53;1.77;;;35.10;25.40;;;;;;20996604;28;20048;-60
2022/08/23 15:28:02;;;;;;;5.70;2.55;;;35.10;25.10;;;;;;20995668;28;20057;-60
2022/08/23 15:38:04;;;;;;;3.28;1.95;;;35.10;24.30;;;;;;20995554;28;20377;-61
2022/08/23 15:48:35;;;;;;;3.13;1.70;;;35.10;24.60;;;;;;20994116;28;20057;-58
2022/08/23 15:58:38;;;;;;;4.38;1.40;;;35.20;24.00;;;;;;20994896;28;20048;-59
2022/08/23 16:08:44;;;;;;;3.17;1.60;;;35.20;23.70;;;;;;20998671;28;20497;-59
2022/08/23 16:18:46;;;;;;;4.72;1.83;;;35.10;24.00;;;;;;21008388;28;20135;-58
2022/08/23 16:28:51;;;;;;;4.80;1.40;;;35.20;23.90;;;;;;21009566;28;20450;-59
2022/08/23 16:38:55;;;;;;;3.65;1.88;;;35.10;23.90;;;;;;21007236;28;20048;-57
2022/08/23 16:48:57;;;;;;;2.53;1.63;;;35.20;23.60;;;;;;21005933;28;20049;-60
2022/08/23 16:58:58;;;;;;;6.80;3.67;;;35.10;23.40;;;;;;21005755;28;20447;-58
2022/08/23 17:09:00;;;;;;;6.13;2.58;;;35.10;23.10;;;;;;21004849;28;20045;-57
2022/08/23 17:19:02;;;;;;;3.35;1.58;;;35.20;22.20;;;;;;21002941;28;20131;-59
2022/08/23 17:29:06;;;;;;;2.35;1.35;;;35.10;22.10;;;;;;21002392;28;20105;-57
2022/08/23 17:39:11;;;;;;;2.50;1.65;;;35.00;22.20;;;;;;21002508;28;20056;-58
2022/08/23 17:49:17;;;;;;;3.65;2.45;;;34.80;22.30;;;;;;21002262;28;20135;-59
2022/08/23 17:59:19;;;;;;;2.45;1.48;;;34.70;23.20;;;;;;20999020;28;20403;-58
2022/08/23 18:09:21;;;;;;;5.93;2.53;;;34.50;23.30;;;;;;20998678;28;20529;-58
2022/08/23 18:19:23;;;;;;;3.40;2.00;;;34.30;23.90;;;;;;20997144;28;20045;-58
2022/08/23 18:29:25;;;;;;;3.88;2.60;;;34.10;23.30;;;;;;20996092;28;20500;-58
2022/08/23 18:39:30;;;;;;;7.03;3.17;;;33.90;23.60;;;;;;20996529;28;20049;-58
2022/08/23 18:49:33;;;;;;;5.30;3.40;;;33.70;23.70;;;;;;20995368;28;20499;-58
2022/08/23 18:59:34;;;;;;;8.00;3.65;;;33.50;23.80;;;;;;20995106;28;20063;-59
2022/08/23 19:09:36;;;;;;;5.43;3.05;;;33.30;24.20;;;;;;20993998;28;20059;-59
2022/08/23 19:19:37;;;;;;;6.65;4.35;;;33.10;24.00;;;;;;20994266;28;20048;-58
2022/08/23 19:29:40;;;;;;;10.23;5.22;;;32.90;24.50;;;;;;20992750;28;20078;-56
2022/08/23 19:39:43;;;;;;;8.75;5.13;;;32.80;25.30;;;;;;20992807;28;20052;-58
2022/08/23 19:49:44;;;;;;;13.43;6.57;;;32.60;25.50;;;;;;21007061;28;20052;-58
2022/08/23 19:59:45;;;;;;;7.97;5.47;;;32.30;25.90;;;;;;21005765;28;20048;-59
2022/08/23 20:09:47;;;;;;;11.82;6.32;;;32.20;26.40;;;;;;21007140;28;20450;-57
2022/08/23 20:19:49;;;;;;;12.82;6.88;;;32.10;26.60;;;;;;21006900;28;20156;-58
2022/08/23 20:29:51;;;;;;;10.70;6.18;;;32.00;27.50;;;;;;21005574;28;20067;-58
2022/08/23 20:39:53;;;;;;;10.38;5.95;;;31.70;27.60;;;;;;21004896;28;20075;-57
2022/08/23 20:49:55;;;;;;;8.27;6.18;;;31.60;27.60;;;;;;21003758;28;20056;-60
2022/08/23 20:59:57;;;;;;;11.52;6.93;;;31.60;27.50;;;;;;21004762;28;20352;-58
2022/08/23 21:09:59;;;;;;;14.82;7.50;;;31.50;28.30;;;;;;21003089;28;20056;-58
2022/08/23 21:20:01;;;;;;;14.32;7.45;;;31.30;29.00;;;;;;21003176;28;20511;-59
2022/08/23 21:30:08;;;;;;;13.88;6.68;;;31.00;29.80;;;;;;21001535;28;20052;-57
2022/08/23 21:40:10;;;;;;;24.35;14.27;;;30.90;30.20;;;;;;21001328;28;20048;-58
2022/08/23 21:50:12;;;;;;;7.32;3.83;;;30.60;30.50;;;;;;21000237;28;20135;-58
2022/08/23 22:00:17;;;;;;;9.85;3.97;;;30.30;30.10;;;;;;20999600;28;20074;-57
2022/08/23 22:10:19;;;;;;;8.88;5.30;;;29.90;30.40;;;;;;20998695;28;20055;-58
2022/08/23 22:20:21;;;;;;;11.20;6.47;;;29.70;30.80;;;;;;20997334;28;20052;-58
2022/08/23 22:30:24;;;;;;;23.67;15.95;;;29.60;31.10;;;;;;20996139;28;20049;-57
2022/08/23 22:40:25;;;;;;;24.98;18.52;;;29.50;31.70;;;;;;20995674;28;20500;-57
2022/08/23 22:50:27;;;;;;;13.25;8.15;;;29.40;31.60;;;;;;20995050;28;20091;-58
2022/08/23 23:00:28;;;;;;;7.25;3.80;;;29.30;31.30;;;;;;20994624;28;20048;-57
2022/08/23 23:10:30;;;;;;;7.57;2.97;;;29.20;31.50;;;;;;20994098;28;20052;-57
2022/08/23 23:20:38;;;;;;;7.13;3.83;;;28.90;31.90;;;;;;21003219;28;20418;-58
2022/08/23 23:30:40;;;;;;;4.88;3.35;;;28.60;32.40;;;;;;21009939;28;20056;-57
2022/08/23 23:40:43;;;;;;;5.88;4.13;;;28.60;32.60;;;;;;21009909;28;20044;-58
2022/08/23 23:50:44;;;;;;;6.70;3.03;;;28.40;32.80;;;;;;21009022;28;20467;-57
